Shelton, Connecticut
Current Conditions -  °F | °C
As of 8:52 PM on Saturday 22 Nov 2014 (Local Time) from KBDR Reporting Station
Overcast Overcast  
Wind Chill: 37°   Ceiling: 5000
Heat Index: 45°   Visibility: 10mi
Dew Point: 28°   Wind: 18mph
Humidity: 52%   Direction: 230°SW
Pressure: 30.19"   Gusts: 25mph
Location:  41.32°N, 73.11°W
Report Text: KBDR 230152Z 23016G22KT 10SM OVC050 07/M02 A3019 RMK AO2 SLP222 T00721022
Loading
Personal Weather Stations






























Interactive Weather Map New forecast layout! Learn more

10-Day Weather Forecast

Advertisements
Track Severe Weather on mobile